National Weather Service Raw Text Product

Displaying AFOS PIL: TAFFOD Received: 2018-04-17 09:06 UTC


321 
FTUS43 KDMX 170906 AAA
TAFFOD
TAF AMD
KFOD 170906Z 1709/1806 VRB04KT P6SM FEW250
      TEMPO 1711/1713 5SM BR
     FM171500 08007KT P6SM FEW200
     FM180300 08012KT P6SM BKN045=